Time;durP1;ratioP1;P1;durP2;ratioP2;P2;SDS_P1;SDS_P2;PMS_P1;PMS_P2;Temp;Humidity;BMP_temperature;BMP_pressure;BME280_temperature;BME280_humidity;BME280_pressure;Samples;Min_cycle;Max_cycle;Signal;HPM_P1;HPM_P2
2023/12/16 00:01:34;;;;;;;13.85;6.38;;;-3.80;99.90;;;;;;4954131;28;20184;-84
2023/12/16 00:04:02;;;;;;;16.27;5.47;;;-3.80;99.90;;;;;;4971081;28;20268;-82
2023/12/16 00:06:30;;;;;;;15.05;6.53;;;-3.80;99.90;;;;;;4969935;28;20204;-82
2023/12/16 00:08:57;;;;;;;10.00;5.38;;;-3.80;99.90;;;;;;4953660;28;20199;-84
2023/12/16 00:11:25;;;;;;;12.48;5.57;;;-3.70;99.90;;;;;;4971158;28;20212;-83
2023/12/16 00:13:53;;;;;;;11.98;6.03;;;-3.70;99.90;;;;;;4971089;28;20245;-83
2023/12/16 00:16:20;;;;;;;13.23;6.22;;;-3.70;99.90;;;;;;4971145;28;20207;-83
2023/12/16 00:18:48;;;;;;;15.23;6.55;;;-3.60;99.90;;;;;;4971207;28;20658;-80
2023/12/16 00:21:16;;;;;;;12.60;6.35;;;-3.60;99.90;;;;;;4938112;28;20195;-82
2023/12/16 00:23:43;;;;;;;14.85;7.32;;;-3.60;99.90;;;;;;4953383;28;20281;-84
2023/12/16 00:26:11;;;;;;;13.23;6.57;;;-3.50;99.90;;;;;;4970956;28;20308;-84
2023/12/16 00:28:38;;;;;;;17.13;6.82;;;-3.50;99.90;;;;;;4970882;28;20192;-84
2023/12/16 00:31:06;;;;;;;13.13;5.85;;;-3.60;99.90;;;;;;4953369;28;20251;-84
2023/12/16 00:33:34;;;;;;;13.68;5.78;;;-3.70;99.90;;;;;;4970703;28;20184;-84
2023/12/16 00:36:01;;;;;;;14.15;5.75;;;-3.70;99.90;;;;;;4970643;28;20219;-83
2023/12/16 00:38:30;;;;;;;14.88;6.60;;;-3.70;99.90;;;;;;4970727;28;20723;-83
2023/12/16 00:40:57;;;;;;;12.70;5.60;;;-3.80;99.90;;;;;;4970552;28;20188;-84
2023/12/16 00:43:25;;;;;;;14.20;6.35;;;-3.70;99.90;;;;;;4969889;28;20650;-83
2023/12/16 00:45:52;;;;;;;13.70;6.43;;;-3.60;99.90;;;;;;4970258;28;20263;-82
2023/12/16 00:48:20;;;;;;;12.68;6.07;;;-3.60;99.90;;;;;;4970459;28;20188;-83
2023/12/16 00:50:47;;;;;;;12.77;5.82;;;-3.60;99.90;;;;;;4970440;28;20669;-85
2023/12/16 00:53:15;;;;;;;10.52;5.88;;;-3.50;99.90;;;;;;4970942;28;20663;-82
2023/12/16 00:55:43;;;;;;;11.88;5.57;;;-3.60;99.90;;;;;;4970423;28;20264;-84
2023/12/16 00:58:10;;;;;;;15.27;6.07;;;-3.60;99.90;;;;;;4970136;28;20655;-82
2023/12/16 01:00:38;;;;;;;13.65;6.25;;;-3.60;99.90;;;;;;4967816;28;20191;-83
2023/12/16 01:03:06;;;;;;;16.75;7.38;;;-3.60;99.90;;;;;;4967159;28;20191;-82
2023/12/16 01:05:33;;;;;;;17.42;7.50;;;-3.50;99.90;;;;;;4967235;28;20191;-80
2023/12/16 01:08:01;;;;;;;19.35;8.13;;;-3.50;99.90;;;;;;4978373;28;20298;-83
2023/12/16 01:10:28;;;;;;;16.25;8.27;;;-3.50;99.90;;;;;;4969950;28;20786;-84
2023/12/16 01:12:56;;;;;;;18.15;8.70;;;-3.60;99.90;;;;;;4970146;28;20658;-83
2023/12/16 01:15:23;;;;;;;17.50;7.78;;;-3.60;99.90;;;;;;4970226;28;20283;-79
2023/12/16 01:17:51;;;;;;;16.77;7.50;;;-3.80;99.90;;;;;;4970077;28;20203;-83
2023/12/16 01:20:19;;;;;;;16.60;7.35;;;-3.90;99.90;;;;;;4967153;28;20202;-82
2023/12/16 01:22:46;;;;;;;12.55;6.32;;;-3.90;99.90;;;;;;4967627;28;20184;-83
2023/12/16 01:25:14;;;;;;;15.73;7.35;;;-4.00;99.90;;;;;;4969070;28;20246;-80
2023/12/16 01:27:42;;;;;;;13.77;7.03;;;-4.10;99.90;;;;;;4970126;28;20220;-82
2023/12/16 01:30:10;;;;;;;15.30;7.07;;;-4.10;99.90;;;;;;4970087;28;20210;-82
2023/12/16 01:32:38;;;;;;;17.23;7.50;;;-4.10;99.90;;;;;;4953679;28;20610;-83
2023/12/16 01:35:05;;;;;;;14.15;6.07;;;-4.10;99.90;;;;;;4967269;28;20204;-83
2023/12/16 01:37:33;;;;;;;15.35;7.22;;;-4.10;99.90;;;;;;4966957;28;20498;-83
2023/12/16 01:40:01;;;;;;;17.33;7.50;;;-4.10;99.90;;;;;;4967181;28;20188;-83
2023/12/16 01:42:28;;;;;;;17.27;7.57;;;-4.10;99.90;;;;;;4968316;28;20271;-83
2023/12/16 01:44:56;;;;;;;14.68;7.00;;;-4.00;99.90;;;;;;4970073;28;20188;-82
2023/12/16 01:47:24;;;;;;;18.55;7.18;;;-4.10;99.90;;;;;;4970049;28;20258;-81
2023/12/16 01:49:52;;;;;;;15.57;8.05;;;-4.10;99.90;;;;;;4968362;28;20196;-83
2023/12/16 01:52:20;;;;;;;18.83;7.32;;;-4.10;99.90;;;;;;4969787;28;20276;-82
2023/12/16 01:54:48;;;;;;;17.08;7.00;;;-4.00;99.90;;;;;;4971345;28;20535;-83
2023/12/16 01:57:15;;;;;;;16.30;7.60;;;-4.00;99.90;;;;;;4973184;28;20684;-83
2023/12/16 01:59:43;;;;;;;17.88;7.53;;;-4.00;99.90;;;;;;4989003;28;20700;-82
2023/12/16 02:02:12;;;;;;;13.00;6.60;;;-3.90;99.90;;;;;;4989877;28;20198;-85
2023/12/16 02:04:40;;;;;;;16.88;7.18;;;-4.00;99.90;;;;;;4990366;28;20183;-79
2023/12/16 02:07:08;;;;;;;17.52;6.80;;;-3.90;99.90;;;;;;4991959;28;20728;-82
2023/12/16 02:09:35;;;;;;;15.10;7.30;;;-4.00;99.90;;;;;;4992786;28;20191;-82
2023/12/16 02:12:03;;;;;;;16.15;7.85;;;-3.90;99.90;;;;;;4992997;28;20749;-80
2023/12/16 02:14:30;;;;;;;17.95;7.43;;;-4.00;99.90;;;;;;4992975;28;20199;-82
2023/12/16 02:16:58;;;;;;;19.60;7.07;;;-4.00;99.90;;;;;;4974650;28;20768;-80
2023/12/16 02:19:26;;;;;;;10.68;5.72;;;-4.00;99.90;;;;;;4972966;28;20268;-78
2023/12/16 02:21:54;;;;;;;16.52;7.38;;;-4.00;99.90;;;;;;4989374;28;20581;-81
2023/12/16 02:24:23;;;;;;;15.40;6.72;;;-3.90;99.90;;;;;;4971793;28;20232;-83
2023/12/16 02:26:50;;;;;;;18.10;7.30;;;-4.00;99.90;;;;;;4989033;28;20199;-80
2023/12/16 02:29:18;;;;;;;18.02;7.60;;;-4.00;99.90;;;;;;4991273;28;20583;-84
2023/12/16 02:31:45;;;;;;;15.40;7.68;;;-4.00;99.90;;;;;;4992358;28;20266;-85
2023/12/16 02:34:13;;;;;;;21.02;9.13;;;-4.00;99.90;;;;;;4974570;28;20195;-83
2023/12/16 02:36:40;;;;;;;19.00;8.30;;;-3.80;99.90;;;;;;4992041;28;20684;-82
2023/12/16 02:39:09;;;;;;;20.30;8.32;;;-3.90;99.90;;;;;;4992204;28;20603;-83
2023/12/16 02:41:36;;;;;;;19.05;8.45;;;-3.90;99.90;;;;;;4990489;28;20195;-83
2023/12/16 02:44:04;;;;;;;18.92;8.35;;;-3.90;99.90;;;;;;4973157;28;20198;-82
2023/12/16 02:46:31;;;;;;;18.95;8.23;;;-4.00;99.90;;;;;;4991111;28;20874;-82
2023/12/16 02:48:59;;;;;;;22.45;8.98;;;-3.90;99.90;;;;;;4992054;28;20599;-83
2023/12/16 02:51:26;;;;;;;22.08;9.38;;;-4.00;99.90;;;;;;4990760;28;20207;-83
2023/12/16 02:53:54;;;;;;;23.83;8.60;;;-4.00;99.90;;;;;;4972601;28;20199;-82
2023/12/16 02:56:21;;;;;;;22.77;9.27;;;-3.90;99.90;;;;;;4954922;28;20247;-83
2023/12/16 02:58:49;;;;;;;21.23;8.93;;;-4.00;99.90;;;;;;4972633;28;20203;-84
2023/12/16 03:01:17;;;;;;;21.67;9.30;;;-4.00;99.90;;;;;;4953224;28;20271;-83
2023/12/16 03:03:44;;;;;;;20.98;8.38;;;-4.00;99.90;;;;;;4969705;28;20184;-84
2023/12/16 03:06:12;;;;;;;21.10;9.95;;;-4.00;99.90;;;;;;4970308;28;20188;-82
2023/12/16 03:08:40;;;;;;;24.83;10.13;;;-4.00;99.90;;;;;;4971273;28;20271;-83
2023/12/16 03:11:07;;;;;;;22.20;9.43;;;-4.00;99.90;;;;;;4968744;28;20666;-83
2023/12/16 03:13:34;;;;;;;23.15;9.40;;;-4.00;99.90;;;;;;4968949;28;20334;-80
2023/12/16 03:16:02;;;;;;;27.52;10.93;;;-3.90;99.90;;;;;;4967386;28;20192;-82
2023/12/16 03:18:30;;;;;;;24.13;10.32;;;-3.90;99.90;;;;;;4951288;28;20314;-82
2023/12/16 03:20:57;;;;;;;23.33;10.43;;;-3.90;99.90;;;;;;4971578;28;20195;-82
2023/12/16 03:23:24;;;;;;;29.58;11.30;;;-3.80;99.90;;;;;;4971855;28;20278;-81
2023/12/16 03:25:52;;;;;;;30.73;11.32;;;-3.80;99.90;;;;;;4954798;28;20239;-82
2023/12/16 03:28:20;;;;;;;25.75;10.85;;;-3.80;99.90;;;;;;4970823;28;20370;-83
2023/12/16 03:30:47;;;;;;;24.90;10.25;;;-3.80;99.90;;;;;;4971712;28;20188;-82
2023/12/16 03:33:15;;;;;;;24.80;10.73;;;-3.80;99.90;;;;;;4971929;28;20188;-82
2023/12/16 03:35:42;;;;;;;25.77;10.23;;;-3.80;99.90;;;;;;4971840;28;20195;-82
2023/12/16 03:38:10;;;;;;;27.50;11.25;;;-3.80;99.90;;;;;;4971558;28;20212;-83
2023/12/16 03:40:37;;;;;;;25.52;11.32;;;-3.80;99.90;;;;;;4971672;28;20188;-82
2023/12/16 03:43:05;;;;;;;25.70;11.80;;;-3.90;99.90;;;;;;4954186;28;20588;-84
2023/12/16 03:45:32;;;;;;;25.60;11.65;;;-3.90;99.90;;;;;;4971752;28;20187;-84
2023/12/16 03:48:00;;;;;;;28.65;11.98;;;-3.90;99.90;;;;;;4971423;28;20188;-81
2023/12/16 03:50:27;;;;;;;24.58;11.05;;;-3.90;99.90;;;;;;4971685;28;20243;-83
2023/12/16 03:52:55;;;;;;;24.48;10.68;;;-3.90;99.90;;;;;;4971500;28;20632;-84
2023/12/16 03:55:22;;;;;;;28.67;11.88;;;-3.90;99.90;;;;;;4971218;28;20722;-81
2023/12/16 03:57:49;;;;;;;23.15;10.45;;;-3.90;99.90;;;;;;4970052;28;20215;-81
2023/12/16 04:00:18;;;;;;;22.33;10.50;;;-3.90;99.90;;;;;;4971363;28;20180;-85
2023/12/16 04:02:46;;;;;;;23.77;9.50;;;-3.80;99.90;;;;;;4971359;28;20195;-80
2023/12/16 04:05:13;;;;;;;22.48;9.63;;;-3.90;99.90;;;;;;4953761;28;20343;-85
2023/12/16 04:07:42;;;;;;;22.90;9.40;;;-3.90;99.90;;;;;;4953662;28;20204;-83
2023/12/16 04:10:10;;;;;;;20.20;9.00;;;-3.90;99.90;;;;;;4971488;28;20554;-83
2023/12/16 04:12:37;;;;;;;24.20;11.00;;;-4.10;99.90;;;;;;4953835;28;20207;-83
2023/12/16 04:15:06;;;;;;;20.98;10.07;;;-4.20;99.90;;;;;;4971158;28;20188;-83
2023/12/16 04:17:33;;;;;;;29.05;11.05;;;-4.10;99.90;;;;;;4968840;28;20291;-83
2023/12/16 04:20:01;;;;;;;24.90;11.70;;;-4.00;99.90;;;;;;4967715;28;20180;-82
2023/12/16 04:22:29;;;;;;;26.55;11.13;;;-4.00;99.90;;;;;;4967890;28;20185;-84
2023/12/16 04:25:00;;;;;;;29.17;10.77;;;-3.90;99.90;;;;;;4967995;28;20581;-82
2023/12/16 04:27:28;;;;;;;27.63;11.30;;;-3.90;99.90;;;;;;4950253;28;20714;-82
2023/12/16 04:29:55;;;;;;;28.98;12.07;;;-4.00;99.90;;;;;;4968235;28;20188;-84
2023/12/16 04:32:23;;;;;;;29.55;11.88;;;-4.00;99.90;;;;;;4967149;28;20219;-84
2023/12/16 04:34:53;;;;;;;28.15;11.93;;;-3.90;99.90;;;;;;4969339;28;20267;-82
2023/12/16 04:37:20;;;;;;;30.95;12.88;;;-3.90;99.90;;;;;;4970870;28;20218;-84
2023/12/16 04:39:48;;;;;;;28.17;12.00;;;-3.90;99.90;;;;;;4970668;28;20192;-82
2023/12/16 04:42:15;;;;;;;32.75;14.13;;;-3.90;99.90;;;;;;4969345;28;20571;-84
2023/12/16 04:44:43;;;;;;;32.60;13.18;;;-3.90;99.90;;;;;;4970899;28;20655;-83
2023/12/16 04:47:10;;;;;;;29.77;12.05;;;-3.90;99.90;;;;;;4968594;28;20251;-84
2023/12/16 04:49:40;;;;;;;30.40;12.10;;;-4.10;99.90;;;;;;4968005;28;20195;-83
2023/12/16 04:52:07;;;;;;;33.15;12.98;;;-4.20;99.90;;;;;;4970802;28;20188;-83
2023/12/16 04:54:35;;;;;;;30.63;12.52;;;-4.20;99.90;;;;;;4970870;28;20188;-81
2023/12/16 04:57:02;;;;;;;33.22;12.27;;;-4.20;99.90;;;;;;4970862;28;20187;-83
2023/12/16 04:59:30;;;;;;;31.70;12.80;;;-4.20;99.90;;;;;;4970635;28;20211;-83
2023/12/16 05:01:57;;;;;;;30.42;12.48;;;-4.10;99.90;;;;;;4970582;28;20192;-83
2023/12/16 05:04:25;;;;;;;33.40;12.77;;;-4.10;99.90;;;;;;4970338;28;20188;-83
2023/12/16 05:06:53;;;;;;;32.92;13.13;;;-4.10;99.90;;;;;;4970155;28;20191;-84
2023/12/16 05:09:21;;;;;;;34.47;13.15;;;-4.10;99.90;;;;;;4970267;28;20188;-84
2023/12/16 05:11:49;;;;;;;31.27;13.05;;;-4.00;99.90;;;;;;4970123;28;20188;-84
2023/12/16 05:14:16;;;;;;;35.08;13.60;;;-3.90;99.90;;;;;;4968622;28;20689;-82
2023/12/16 05:16:43;;;;;;;35.28;13.98;;;-3.90;99.90;;;;;;4967241;28;20935;-82
2023/12/16 05:19:11;;;;;;;41.85;14.00;;;-4.00;99.90;;;;;;4967493;28;20196;-85
2023/12/16 05:21:38;;;;;;;31.77;12.38;;;-4.00;99.90;;;;;;4949440;28;20642;-81
2023/12/16 05:24:06;;;;;;;38.33;13.65;;;-4.30;99.90;;;;;;4967808;28;20227;-80
2023/12/16 05:26:34;;;;;;;38.28;13.82;;;-4.20;99.90;;;;;;4965649;28;20203;-82
2023/12/16 05:29:01;;;;;;;32.20;13.35;;;-4.20;99.90;;;;;;4972470;28;20195;-83
2023/12/16 05:31:29;;;;;;;40.38;14.20;;;-4.20;99.90;;;;;;4971234;28;20607;-81
2023/12/16 05:33:57;;;;;;;43.55;15.90;;;-4.30;99.90;;;;;;4971089;28;20191;-83
2023/12/16 05:36:24;;;;;;;41.97;13.90;;;-4.20;99.90;;;;;;4984668;28;20597;-82
2023/12/16 05:38:52;;;;;;;39.95;15.10;;;-4.10;99.90;;;;;;4990005;28;20218;-82
2023/12/16 05:41:19;;;;;;;41.63;16.63;;;-4.10;99.90;;;;;;4990141;28;20928;-81
2023/12/16 05:43:47;;;;;;;36.42;14.88;;;-4.00;99.90;;;;;;4990916;28;20188;-84
2023/12/16 05:46:14;;;;;;;43.17;16.60;;;-4.00;99.90;;;;;;4989842;28;20203;-84
2023/12/16 05:48:41;;;;;;;44.92;15.70;;;-4.00;99.90;;;;;;4990152;28;20196;-83
2023/12/16 05:51:09;;;;;;;39.35;16.48;;;-4.00;99.90;;;;;;4991734;28;20188;-82
2023/12/16 05:53:37;;;;;;;39.42;13.82;;;-4.00;99.90;;;;;;4992585;28;20198;-82
2023/12/16 05:56:06;;;;;;;36.95;13.00;;;-4.10;99.90;;;;;;4991458;28;20191;-82
2023/12/16 05:58:33;;;;;;;36.05;14.95;;;-4.20;99.90;;;;;;4992821;28;20213;-82
2023/12/16 06:01:01;;;;;;;44.85;14.75;;;-4.10;99.90;;;;;;4993033;28;20183;-82
2023/12/16 06:03:29;;;;;;;37.90;15.13;;;-4.20;99.90;;;;;;4992895;28;20194;-83
2023/12/16 06:05:56;;;;;;;40.80;16.20;;;-4.20;99.90;;;;;;4993156;28;20194;-84
2023/12/16 06:08:24;;;;;;;34.80;13.43;;;-4.10;99.90;;;;;;4992838;28;20191;-79
2023/12/16 06:10:51;;;;;;;35.00;13.60;;;-4.10;99.90;;;;;;4992558;28;20193;-83
2023/12/16 06:13:19;;;;;;;32.90;12.93;;;-4.10;99.90;;;;;;4973293;28;20192;-84
2023/12/16 06:15:46;;;;;;;33.05;13.15;;;-4.10;99.90;;;;;;4973383;28;20199;-82
2023/12/16 06:18:14;;;;;;;36.20;13.50;;;-4.20;99.90;;;;;;4972777;28;20234;-81
2023/12/16 06:20:41;;;;;;;33.55;13.40;;;-4.10;99.90;;;;;;4973194;28;20642;-81
2023/12/16 06:23:09;;;;;;;31.95;13.73;;;-4.10;99.90;;;;;;4972738;28;21479;-83
2023/12/16 06:25:36;;;;;;;32.13;13.85;;;-4.10;99.90;;;;;;4973220;28;20659;-82
2023/12/16 06:28:03;;;;;;;36.45;14.15;;;-4.10;99.90;;;;;;4973823;28;20198;-84
2023/12/16 06:30:31;;;;;;;32.85;12.90;;;-4.10;99.90;;;;;;4991014;28;20270;-84
2023/12/16 06:32:58;;;;;;;40.22;13.45;;;-4.10;99.90;;;;;;4992112;28;20266;-82
2023/12/16 06:35:26;;;;;;;36.88;14.23;;;-4.20;99.90;;;;;;4990713;28;20207;-82
2023/12/16 06:37:53;;;;;;;41.63;15.68;;;-4.20;99.90;;;;;;4990120;28;20217;-82
2023/12/16 06:40:21;;;;;;;39.95;14.48;;;-4.10;99.90;;;;;;4990973;28;20195;-80
2023/12/16 06:42:48;;;;;;;38.38;15.32;;;-4.20;99.90;;;;;;4991609;28;20187;-82
2023/12/16 06:45:16;;;;;;;42.13;15.98;;;-4.30;99.90;;;;;;4992138;28;20195;-83
2023/12/16 06:47:43;;;;;;;37.28;15.15;;;-4.20;99.90;;;;;;4991419;28;20179;-84
2023/12/16 06:50:11;;;;;;;34.22;14.00;;;-4.20;99.90;;;;;;4992065;28;20227;-81
2023/12/16 06:52:38;;;;;;;44.70;16.70;;;-4.20;99.90;;;;;;4990999;28;20206;-79
2023/12/16 06:55:06;;;;;;;46.40;16.30;;;-4.20;99.90;;;;;;4991163;28;20188;-82
2023/12/16 06:57:34;;;;;;;37.85;14.95;;;-4.20;99.90;;;;;;4991721;28;20278;-81
2023/12/16 07:00:01;;;;;;;41.00;15.07;;;-4.20;99.90;;;;;;4991993;28;20183;-81
2023/12/16 07:02:29;;;;;;;40.83;15.70;;;-4.10;99.90;;;;;;4992000;28;20677;-83
2023/12/16 07:04:56;;;;;;;35.63;14.95;;;-4.10;99.90;;;;;;4992070;28;20188;-83
2023/12/16 07:07:28;;;;;;;36.10;15.40;;;-4.10;99.90;;;;;;4991912;28;20650;-82
2023/12/16 07:09:56;;;;;;;36.42;15.60;;;-4.20;99.90;;;;;;4991815;28;20191;-82
2023/12/16 07:12:23;;;;;;;41.85;16.15;;;-4.10;99.90;;;;;;4991629;28;20632;-82
2023/12/16 07:14:51;;;;;;;39.83;15.70;;;-4.10;99.90;;;;;;4991700;28;20553;-83
2023/12/16 07:17:19;;;;;;;36.30;14.93;;;-4.10;99.90;;;;;;4991677;28;20197;-81
2023/12/16 07:19:46;;;;;;;33.60;14.18;;;-4.20;99.90;;;;;;4991599;28;20208;-82
2023/12/16 07:22:17;;;;;;;32.78;14.77;;;-4.20;99.90;;;;;;4991790;28;20202;-83
2023/12/16 07:24:45;;;;;;;39.03;15.20;;;-4.10;99.90;;;;;;4980609;28;20223;-81
2023/12/16 07:27:13;;;;;;;37.55;15.63;;;-4.10;99.90;;;;;;4987970;28;20274;-83
2023/12/16 07:29:42;;;;;;;37.45;15.50;;;-4.00;99.90;;;;;;4987245;28;20204;-82
2023/12/16 07:32:10;;;;;;;39.13;16.52;;;-4.10;99.90;;;;;;4971960;28;20196;-82
2023/12/16 07:34:37;;;;;;;41.72;17.60;;;-4.10;99.90;;;;;;4972264;28;20188;-84
2023/12/16 07:37:05;;;;;;;35.88;15.90;;;-4.10;99.90;;;;;;4970182;28;20192;-83
2023/12/16 07:39:32;;;;;;;39.03;16.92;;;-4.10;99.90;;;;;;4971754;28;20752;-84
2023/12/16 07:42:01;;;;;;;42.35;17.50;;;-4.10;99.90;;;;;;4971537;28;20243;-82
2023/12/16 07:44:29;;;;;;;35.97;15.75;;;-4.00;99.90;;;;;;4971689;28;20188;-84
2023/12/16 07:46:56;;;;;;;40.15;17.40;;;-4.00;99.90;;;;;;4971378;28;20667;-82
2023/12/16 07:49:25;;;;;;;39.85;17.35;;;-4.00;99.90;;;;;;4971691;28;20214;-82
2023/12/16 07:51:54;;;;;;;44.75;18.08;;;-3.90;99.90;;;;;;4953557;28;20192;-84
2023/12/16 07:54:24;;;;;;;40.78;18.15;;;-3.90;99.90;;;;;;4971543;28;20279;-84
2023/12/16 07:56:52;;;;;;;38.13;17.45;;;-3.90;99.90;;;;;;4971392;28;20179;-84
2023/12/16 07:59:20;;;;;;;43.47;17.35;;;-3.90;99.90;;;;;;4970729;28;20239;-78
2023/12/16 08:01:52;;;;;;;47.85;18.45;;;-4.00;99.90;;;;;;4969383;28;20270;-83
2023/12/16 08:04:20;;;;;;;41.78;17.50;;;-4.00;99.90;;;;;;4971350;28;20172;-82
2023/12/16 08:06:48;;;;;;;42.05;18.65;;;-4.00;99.90;;;;;;4971287;28;20659;-83
2023/12/16 08:09:15;;;;;;;35.58;16.65;;;-4.00;99.90;;;;;;4971499;28;20191;-83
2023/12/16 08:11:43;;;;;;;40.28;17.25;;;-4.00;99.90;;;;;;4971186;28;20659;-84
2023/12/16 08:14:12;;;;;;;43.83;17.40;;;-4.00;99.90;;;;;;4971717;28;20188;-81
2023/12/16 08:16:40;;;;;;;39.08;16.90;;;-4.00;99.90;;;;;;4971269;28;20247;-82
2023/12/16 08:19:07;;;;;;;46.92;18.38;;;-3.90;99.90;;;;;;4971548;28;20208;-83
2023/12/16 08:21:35;;;;;;;46.38;18.02;;;-3.90;99.90;;;;;;4971031;28;20208;-84
2023/12/16 08:24:03;;;;;;;36.28;16.88;;;-3.80;99.90;;;;;;4970197;28;20227;-82
2023/12/16 08:26:30;;;;;;;40.35;17.77;;;-3.80;99.90;;;;;;4970816;28;20195;-83
2023/12/16 08:28:57;;;;;;;40.63;18.40;;;-3.80;99.90;;;;;;4970617;28;20188;-82
2023/12/16 08:31:25;;;;;;;45.20;18.27;;;-3.80;99.90;;;;;;4970116;28;20238;-83
2023/12/16 08:33:52;;;;;;;46.50;17.80;;;-3.80;99.90;;;;;;4950057;28;20188;-83
2023/12/16 08:36:20;;;;;;;45.65;18.20;;;-3.80;99.90;;;;;;4967903;28;20713;-81
2023/12/16 08:38:48;;;;;;;42.88;17.17;;;-3.80;99.90;;;;;;4967745;28;20211;-83
2023/12/16 08:41:15;;;;;;;44.78;17.98;;;-3.70;99.90;;;;;;4968962;28;20184;-83
2023/12/16 08:43:43;;;;;;;39.22;16.27;;;-3.60;99.90;;;;;;4970378;28;20643;-83
2023/12/16 08:46:12;;;;;;;40.22;14.88;;;-3.60;99.90;;;;;;4970497;28;20215;-82
2023/12/16 08:48:40;;;;;;;48.88;16.15;;;-3.60;99.90;;;;;;4970607;28;20180;-84
2023/12/16 08:51:08;;;;;;;39.28;16.05;;;-3.60;99.90;;;;;;4968553;28;20200;-81
2023/12/16 08:53:35;;;;;;;32.53;14.05;;;-3.60;99.90;;;;;;4949860;28;20203;-82
2023/12/16 08:56:03;;;;;;;37.55;16.05;;;-3.60;99.90;;;;;;4969300;28;20250;-85
2023/12/16 08:58:31;;;;;;;48.97;17.83;;;-3.60;99.90;;;;;;4970471;28;20227;-82
2023/12/16 09:00:58;;;;;;;36.17;15.75;;;-3.60;99.90;;;;;;4970806;28;20219;-83
2023/12/16 09:03:26;;;;;;;37.08;15.23;;;-3.50;99.90;;;;;;4969650;28;20227;-81
2023/12/16 09:05:54;;;;;;;40.42;16.00;;;-3.50;99.90;;;;;;4970144;28;20196;-83
2023/12/16 09:08:21;;;;;;;41.53;16.23;;;-3.50;99.90;;;;;;4968391;28;20188;-82
2023/12/16 09:10:49;;;;;;;41.47;17.73;;;-3.50;99.90;;;;;;4966134;28;20192;-83
2023/12/16 09:13:16;;;;;;;51.83;18.52;;;-3.50;99.90;;;;;;4977015;28;20183;-82
2023/12/16 09:15:44;;;;;;;45.60;19.02;;;-3.40;99.90;;;;;;4989295;28;20219;-79
2023/12/16 09:18:12;;;;;;;47.97;17.80;;;-3.40;99.90;;;;;;4981671;28;20218;-81
2023/12/16 09:20:40;;;;;;;43.00;17.92;;;-3.40;99.90;;;;;;4969689;28;20254;-82
2023/12/16 09:23:08;;;;;;;43.83;19.27;;;-3.40;99.90;;;;;;4968676;28;20608;-81
2023/12/16 09:25:36;;;;;;;45.13;19.48;;;-3.40;99.90;;;;;;4970112;28;20650;-83
2023/12/16 09:28:03;;;;;;;51.15;21.40;;;-3.30;99.90;;;;;;4969854;28;20198;-81
2023/12/16 09:30:31;;;;;;;41.65;18.38;;;-3.30;99.90;;;;;;4980488;28;20195;-83
2023/12/16 09:32:58;;;;;;;43.80;18.25;;;-3.30;99.90;;;;;;4988803;28;20187;-79
2023/12/16 09:35:26;;;;;;;48.80;21.33;;;-3.20;99.90;;;;;;4984829;28;20205;-82
2023/12/16 09:37:54;;;;;;;47.65;20.15;;;-3.20;99.90;;;;;;4987140;28;20183;-81
2023/12/16 09:40:22;;;;;;;47.53;20.25;;;-3.20;99.90;;;;;;4989363;28;20767;-82
2023/12/16 09:42:53;;;;;;;41.97;17.50;;;-3.20;99.90;;;;;;4989319;28;20190;-82
2023/12/16 09:45:21;;;;;;;46.13;19.15;;;-3.20;99.90;;;;;;4989034;28;20176;-80
2023/12/16 09:47:49;;;;;;;53.90;19.80;;;-3.20;99.90;;;;;;4989236;28;20615;-82
2023/12/16 09:50:16;;;;;;;38.50;17.58;;;-3.20;99.90;;;;;;4989394;28;20195;-82
2023/12/16 09:52:44;;;;;;;40.63;16.48;;;-3.20;99.90;;;;;;4988334;28;20191;-84
2023/12/16 09:55:13;;;;;;;38.72;16.63;;;-3.10;99.90;;;;;;4989256;28;20983;-81
2023/12/16 09:57:42;;;;;;;45.13;17.98;;;-3.10;99.90;;;;;;4988052;28;20262;-82
2023/12/16 10:00:12;;;;;;;45.60;18.20;;;-3.10;99.90;;;;;;4989143;28;20554;-83
2023/12/16 10:02:41;;;;;;;48.97;19.13;;;-3.00;99.90;;;;;;4989276;28;20266;-81
2023/12/16 10:05:11;;;;;;;37.95;16.77;;;-3.00;99.90;;;;;;4989169;28;20191;-81
2023/12/16 10:07:41;;;;;;;41.30;17.73;;;-3.00;99.90;;;;;;4988953;28;20172;-81
2023/12/16 10:10:12;;;;;;;39.60;16.50;;;-2.90;99.90;;;;;;4989168;28;20175;-80
2023/12/16 10:12:40;;;;;;;40.13;16.52;;;-2.90;99.90;;;;;;4989213;28;20230;-78
2023/12/16 10:15:07;;;;;;;42.92;16.02;;;-3.00;99.90;;;;;;4989831;28;20704;-81
2023/12/16 10:17:36;;;;;;;47.00;17.92;;;-3.00;99.90;;;;;;4992321;28;20660;-81
2023/12/16 10:20:05;;;;;;;38.03;16.40;;;-2.90;99.90;;;;;;4992403;28;20266;-82
2023/12/16 10:22:33;;;;;;;37.30;15.48;;;-2.90;99.90;;;;;;4974922;28;20194;-81
2023/12/16 10:25:02;;;;;;;38.90;15.65;;;-2.90;99.90;;;;;;4992479;28;20223;-82
2023/12/16 10:27:29;;;;;;;45.55;16.58;;;-2.90;99.90;;;;;;4992251;28;20179;-81
2023/12/16 10:29:58;;;;;;;41.85;16.35;;;-2.90;99.90;;;;;;4992389;28;20187;-83
2023/12/16 10:32:39;;;;;;;48.15;18.33;;;-2.90;99.90;;;;;;4992571;28;20180;-83
2023/12/16 10:35:07;;;;;;;45.95;17.55;;;-2.90;99.90;;;;;;4992491;28;20229;-80
2023/12/16 10:37:46;;;;;;;42.13;15.75;;;-2.90;99.90;;;;;;4992274;28;20192;-83
2023/12/16 10:40:14;;;;;;;43.22;17.60;;;-2.90;99.90;;;;;;4973986;28;20258;-81
2023/12/16 10:42:42;;;;;;;43.70;15.57;;;-2.80;99.90;;;;;;4980210;28;20192;-81
2023/12/16 10:45:11;;;;;;;37.13;15.48;;;-2.80;99.90;;;;;;4975777;28;20192;-83
2023/12/16 10:47:41;;;;;;;40.08;16.20;;;-2.80;99.90;;;;;;4973217;28;20202;-83
2023/12/16 10:50:12;;;;;;;43.17;15.80;;;-2.80;99.90;;;;;;4979456;28;20196;-82
2023/12/16 10:52:43;;;;;;;42.67;14.35;;;-2.70;99.90;;;;;;4978220;28;20720;-82
2023/12/16 10:55:15;;;;;;;38.28;14.50;;;-2.70;99.90;;;;;;4978958;28;20199;-84
2023/12/16 10:58:03;;;;;;;39.08;15.50;;;-2.70;99.90;;;;;;4976568;28;20198;-83
2023/12/16 11:00:34;;;;;;;34.38;15.52;;;-2.60;99.90;;;;;;4976690;28;20216;-80
2023/12/16 11:03:33;;;;;;;43.30;16.83;;;-2.60;99.90;;;;;;4981489;28;20578;-83
2023/12/16 11:06:07;;;;;;;37.45;14.48;;;-2.50;99.90;;;;;;4966550;28;20212;-81
2023/12/16 11:08:36;;;;;;;38.55;15.52;;;-2.50;99.90;;;;;;4980305;28;20188;-82
2023/12/16 11:11:04;;;;;;;55.08;16.58;;;-2.50;99.90;;;;;;4982282;28;22061;-83
2023/12/16 11:13:34;;;;;;;40.95;15.05;;;-2.50;99.90;;;;;;4980846;28;20247;-82
2023/12/16 11:16:17;;;;;;;39.33;14.85;;;-2.50;99.90;;;;;;4979456;28;20199;-81
2023/12/16 11:18:49;;;;;;;39.08;14.57;;;-2.50;99.90;;;;;;4975886;28;20199;-83
2023/12/16 11:21:20;;;;;;;45.30;15.65;;;-2.50;99.90;;;;;;4978871;28;20193;-83
2023/12/16 11:23:49;;;;;;;42.45;15.27;;;-2.50;99.90;;;;;;4980438;28;21071;-82
2023/12/16 11:26:17;;;;;;;49.88;17.27;;;-2.50;99.90;;;;;;4975997;28;20195;-81
2023/12/16 11:28:53;;;;;;;43.85;17.42;;;-2.50;99.90;;;;;;4972201;28;20286;-79
2023/12/16 11:31:21;;;;;;;45.85;16.05;;;-2.50;99.90;;;;;;4972909;28;20290;-79
2023/12/16 11:33:49;;;;;;;42.85;16.73;;;-2.40;99.90;;;;;;4981023;28;20212;-81
2023/12/16 11:36:19;;;;;;;38.25;15.32;;;-2.40;99.90;;;;;;4975073;28;20243;-82
2023/12/16 11:38:47;;;;;;;39.45;16.58;;;-2.40;99.90;;;;;;4976128;28;20211;-81
2023/12/16 11:41:37;;;;;;;39.97;16.20;;;-2.30;99.90;;;;;;4977340;28;20308;-81
2023/12/16 11:44:06;;;;;;;39.63;16.30;;;-2.40;99.90;;;;;;4975045;28;20192;-82
2023/12/16 11:46:40;;;;;;;42.55;16.17;;;-2.30;99.90;;;;;;4989349;28;20195;-82
2023/12/16 11:49:10;;;;;;;39.00;15.35;;;-2.30;99.90;;;;;;4970202;28;20183;-83
2023/12/16 11:51:39;;;;;;;40.40;15.25;;;-2.30;99.90;;;;;;4971720;28;20173;-83
2023/12/16 11:54:08;;;;;;;37.92;14.75;;;-2.30;99.90;;;;;;4977500;28;20179;-81
2023/12/16 11:56:36;;;;;;;49.70;16.58;;;-2.30;99.90;;;;;;4990117;28;20191;-83
2023/12/16 11:59:04;;;;;;;41.65;15.95;;;-2.30;99.90;;;;;;4990731;28;20204;-82
2023/12/16 12:01:33;;;;;;;46.65;15.45;;;-2.30;99.90;;;;;;4990598;28;20195;-82
2023/12/16 12:04:02;;;;;;;40.97;16.00;;;-2.30;99.90;;;;;;4989207;28;20271;-83
2023/12/16 12:06:31;;;;;;;44.42;15.35;;;-2.30;99.90;;;;;;4954648;28;20239;-83
2023/12/16 12:08:58;;;;;;;43.80;15.85;;;-2.20;99.90;;;;;;4987469;28;20250;-84
2023/12/16 12:11:26;;;;;;;40.90;16.60;;;-2.20;99.90;;;;;;4990393;28;20650;-81
2023/12/16 12:13:55;;;;;;;41.97;15.93;;;-2.20;99.90;;;;;;4988911;28;21005;-80
2023/12/16 12:16:28;;;;;;;46.38;16.63;;;-2.20;99.90;;;;;;4987386;28;20179;-81
2023/12/16 12:18:56;;;;;;;42.85;15.50;;;-2.20;99.90;;;;;;4987182;28;20255;-80
2023/12/16 12:21:24;;;;;;;46.78;16.80;;;-2.10;99.90;;;;;;4986154;28;20650;-81
2023/12/16 12:23:51;;;;;;;46.70;16.58;;;-2.20;99.90;;;;;;4987732;28;20227;-80
2023/12/16 12:26:21;;;;;;;36.72;15.93;;;-2.10;99.90;;;;;;4990196;28;20266;-83
2023/12/16 12:28:58;;;;;;;39.50;15.05;;;-2.10;99.90;;;;;;4990189;28;20187;-81
2023/12/16 12:31:30;;;;;;;42.92;16.40;;;-2.10;99.90;;;;;;4973893;28;20180;-83
2023/12/16 12:33:57;;;;;;;41.80;14.43;;;-2.10;99.90;;;;;;4970188;28;20279;-82
2023/12/16 12:36:25;;;;;;;34.38;14.35;;;-2.00;99.90;;;;;;4967688;28;20643;-84